createdAt,value
2018-05-10T00:00:23.349Z,6.83
2018-05-10T00:02:57.575Z,6.10
2018-05-10T00:18:21.543Z,6.50
2018-05-10T00:20:56.267Z,6.53
2018-05-10T00:23:30.374Z,6.30
2018-05-10T00:26:04.365Z,6.50
2018-05-10T00:28:38.798Z,6.20
2018-05-10T00:31:14.039Z,6.53
2018-05-10T00:33:47.744Z,6.27
2018-05-10T00:36:22.858Z,6.93
2018-05-10T00:38:56.867Z,6.60
2018-05-10T00:41:31.512Z,7.30
2018-05-10T00:44:05.211Z,7.47
2018-05-10T00:46:39.022Z,6.73
2018-05-10T00:49:13.620Z,6.77
2018-05-10T00:51:48.136Z,7.00
2018-05-10T00:54:33.527Z,7.43
2018-05-10T00:57:08.993Z,7.13
2018-05-10T00:59:42.957Z,7.47
2018-05-10T01:02:17.516Z,6.87
2018-05-10T01:04:51.862Z,7.23
2018-05-10T01:07:26.675Z,7.53
2018-05-10T01:10:01.155Z,7.60
2018-05-10T01:12:36.039Z,7.20
2018-05-10T01:15:10.663Z,7.40
2018-05-10T01:17:45.308Z,7.40
2018-05-10T01:20:19.057Z,7.03
2018-05-10T01:22:53.660Z,6.97
2018-05-10T01:25:27.466Z,6.93
2018-05-10T01:28:02.071Z,7.20
2018-05-10T01:30:36.836Z,6.73
2018-05-10T01:33:11.799Z,7.00
2018-05-10T01:35:57.439Z,7.07
2018-05-10T01:38:32.332Z,6.77
2018-05-10T01:41:06.807Z,6.67
2018-05-10T01:43:41.252Z,6.73
2018-05-10T01:46:15.414Z,7.37
2018-05-10T01:48:50.326Z,6.80
2018-05-10T01:51:24.965Z,7.50
2018-05-10T01:53:59.498Z,7.37
2018-05-10T01:56:34.129Z,6.53
2018-05-10T01:59:07.961Z,7.37
2018-05-10T02:01:42.139Z,7.07
2018-05-10T02:04:16.011Z,7.47
2018-05-10T02:06:49.647Z,7.57
2018-05-10T02:09:24.586Z,7.37
2018-05-10T02:11:59.528Z,7.73
2018-05-10T02:14:33.299Z,7.60
2018-05-10T02:17:07.349Z,6.83
2018-05-10T02:19:41.373Z,7.10
2018-05-10T02:22:16.045Z,7.17
2018-05-10T02:24:50.012Z,7.10
2018-05-10T02:27:23.762Z,7.17
2018-05-10T02:29:58.505Z,7.73
2018-05-10T02:32:32.591Z,7.50
2018-05-10T02:35:06.507Z,8.53
2018-05-10T02:37:41.240Z,7.40
2018-05-10T02:40:15.125Z,7.70
2018-05-10T02:42:48.996Z,7.90
2018-05-10T02:45:22.673Z,8.10
2018-05-10T02:47:57.309Z,8.17
2018-05-10T02:50:31.146Z,7.87
2018-05-10T02:53:04.878Z,7.70
2018-05-10T02:55:38.610Z,7.77
2018-05-10T02:58:13.408Z,7.97
2018-05-10T03:00:48.607Z,7.77
2018-05-10T03:03:23.367Z,7.63
2018-05-10T03:05:57.277Z,7.97
2018-05-10T03:08:31.270Z,7.30
2018-05-10T03:11:05.184Z,7.50
2018-05-10T03:13:40.008Z,7.93
2018-05-10T03:16:15.356Z,8.00
2018-05-10T03:18:50.545Z,7.50
2018-05-10T03:21:24.239Z,7.87
2018-05-10T03:23:58.829Z,7.40
2018-05-10T03:26:32.831Z,7.60
2018-05-10T03:29:07.963Z,7.43
2018-05-10T03:31:42.676Z,7.53
2018-05-10T03:34:17.137Z,7.90
2018-05-10T03:36:51.396Z,8.00
2018-05-10T03:39:25.073Z,7.67
2018-05-10T03:42:00.887Z,7.47
2018-05-10T03:44:36.734Z,8.00
2018-05-10T03:47:11.245Z,7.73
2018-05-10T03:49:44.872Z,7.63
2018-05-10T03:52:18.785Z,7.83
2018-05-10T03:54:53.683Z,8.00
2018-05-10T03:57:28.686Z,7.87
2018-05-10T04:00:02.503Z,7.50
2018-05-10T04:02:48.224Z,7.17
2018-05-10T04:05:34.513Z,7.20
2018-05-10T04:08:20.619Z,7.40
2018-05-10T04:11:06.181Z,7.37
2018-05-10T04:13:40.406Z,7.40
2018-05-10T04:16:14.116Z,7.07
2018-05-10T04:18:48.695Z,7.27
2018-05-10T04:21:23.339Z,7.43
2018-05-10T04:23:57.237Z,7.70
2018-05-10T04:26:31.791Z,6.93
2018-05-10T04:29:05.680Z,7.53
2018-05-10T04:31:39.745Z,7.83
2018-05-10T04:34:13.700Z,7.70
2018-05-10T04:36:48.702Z,7.60
2018-05-10T04:39:22.841Z,7.60
2018-05-10T04:41:56.675Z,8.00
2018-05-10T04:44:31.689Z,7.80
2018-05-10T04:47:06.198Z,8.07
2018-05-10T04:49:41.202Z,7.70
2018-05-10T04:52:15.953Z,8.07
2018-05-10T04:54:51.355Z,7.43
2018-05-10T04:57:25.611Z,8.00
2018-05-10T05:00:01.187Z,8.27
2018-05-10T05:02:35.700Z,7.10
2018-05-10T05:05:10.699Z,7.70
2018-05-10T05:07:44.557Z,7.43
2018-05-10T05:10:19.257Z,7.27
2018-05-10T05:12:53.062Z,7.00
2018-05-10T05:15:27.170Z,6.93
2018-05-10T05:18:01.981Z,7.73
2018-05-10T05:20:36.815Z,7.33
2018-05-10T05:23:10.826Z,6.70
2018-05-10T05:25:45.858Z,7.03
2018-05-10T05:28:21.236Z,6.37
2018-05-10T05:30:55.940Z,7.20
2018-05-10T05:33:30.737Z,6.87
2018-05-10T05:36:04.633Z,7.30
2018-05-10T05:38:39.296Z,7.13
2018-05-10T05:41:13.285Z,7.30
2018-05-10T05:43:47.938Z,7.90
2018-05-10T05:46:25.108Z,6.90
2018-05-10T05:48:59.943Z,7.80
2018-05-10T05:51:35.276Z,7.67
2018-05-10T05:54:10.164Z,7.70
2018-05-10T05:56:44.221Z,8.03
2018-05-10T05:59:19.185Z,7.17
2018-05-10T06:01:52.964Z,7.67
2018-05-10T06:04:26.831Z,7.70
2018-05-10T06:07:00.927Z,7.60
2018-05-10T06:09:34.780Z,7.90
2018-05-10T06:12:08.808Z,8.47
2018-05-10T06:14:42.919Z,8.70
2018-05-10T06:17:17.203Z,7.73
2018-05-10T06:19:52.214Z,7.60
2018-05-10T06:22:25.948Z,6.43
2018-05-10T06:25:00.429Z,6.50
2018-05-10T06:27:34.433Z,7.00
2018-05-10T06:30:08.763Z,6.77
2018-05-10T06:32:43.379Z,6.80
2018-05-10T06:35:18.151Z,7.20
2018-05-10T06:37:52.897Z,7.20
2018-05-10T06:40:27.619Z,7.50
2018-05-10T06:43:01.592Z,7.83
2018-05-10T06:45:36.139Z,7.73
2018-05-10T06:48:10.101Z,8.13
2018-05-10T06:50:43.926Z,7.60
2018-05-10T06:53:18.260Z,7.70
2018-05-10T06:55:52.903Z,7.40
2018-05-10T06:58:27.378Z,7.73
2018-05-10T07:01:00.847Z,8.50
2018-05-10T07:03:34.470Z,8.57
2018-05-10T07:06:08.293Z,8.60
2018-05-10T07:08:41.808Z,8.23
2018-05-10T07:11:15.518Z,8.43
2018-05-10T07:13:49.127Z,8.50
2018-05-10T07:16:23.024Z,8.80
2018-05-10T07:18:56.847Z,8.50
2018-05-10T07:21:31.189Z,8.80
2018-05-10T07:24:05.695Z,9.47
2018-05-10T07:26:40.366Z,9.00
2018-05-10T07:29:14.517Z,8.87
2018-05-10T07:31:49.384Z,8.77
2018-05-10T07:34:23.193Z,8.10
2018-05-10T07:36:56.922Z,8.07
2018-05-10T07:39:31.142Z,8.33
2018-05-10T07:42:07.103Z,7.50
2018-05-10T07:44:40.789Z,7.57
2018-05-10T07:47:15.524Z,7.70
2018-05-10T07:49:50.981Z,7.83
2018-05-10T07:52:26.382Z,8.07
2018-05-10T07:55:00.557Z,8.17
2018-05-10T07:57:34.334Z,8.13
2018-05-10T08:00:10.583Z,8.67
2018-05-10T08:02:44.495Z,8.30
2018-05-10T08:05:19.335Z,7.83
2018-05-10T08:07:54.240Z,8.17
2018-05-10T08:10:30.207Z,8.40
2018-05-10T08:13:05.048Z,8.10
2018-05-10T08:15:41.103Z,8.47
2018-05-10T08:18:15.735Z,8.07
2018-05-10T08:20:51.755Z,7.47
2018-05-10T08:23:26.571Z,7.70
2018-05-10T08:26:00.720Z,7.73
2018-05-10T08:28:35.774Z,8.13
2018-05-10T08:31:10.899Z,7.37
2018-05-10T08:33:45.595Z,7.93
2018-05-10T08:36:20.035Z,8.80
2018-05-10T08:38:54.715Z,8.70
2018-05-10T08:41:30.719Z,8.90
2018-05-10T08:44:05.595Z,8.67
2018-05-10T08:46:39.993Z,8.60
2018-05-10T08:49:14.288Z,8.90
2018-05-10T08:51:49.006Z,9.40
2018-05-10T08:54:22.816Z,10.43
2018-05-10T08:56:57.428Z,10.67
2018-05-10T08:59:32.491Z,9.57
2018-05-10T09:02:05.957Z,8.30
2018-05-10T09:04:41.806Z,7.43
2018-05-10T09:07:16.524Z,6.87
2018-05-10T09:09:50.527Z,6.80
2018-05-10T09:12:24.194Z,5.53
2018-05-10T09:14:58.565Z,5.30
2018-05-10T09:17:33.394Z,4.50
2018-05-10T09:20:08.568Z,4.57
2018-05-10T09:22:44.264Z,3.60
2018-05-10T09:25:18.494Z,3.90
2018-05-10T09:27:52.987Z,3.33
2018-05-10T09:30:27.637Z,3.60
2018-05-10T09:33:01.512Z,3.53
2018-05-10T09:35:36.489Z,3.47
2018-05-10T09:38:10.208Z,3.50
2018-05-10T09:40:45.139Z,4.20
2018-05-10T09:43:19.960Z,4.13
2018-05-10T09:45:54.264Z,4.57
2018-05-10T09:48:28.367Z,4.47
2018-05-10T09:51:02.850Z,4.00
2018-05-10T09:53:39.024Z,3.87
2018-05-10T09:56:13.832Z,4.50
2018-05-10T09:58:47.811Z,3.90
2018-05-10T10:01:22.609Z,4.20
2018-05-10T10:03:58.240Z,4.53
2018-05-10T10:06:33.134Z,4.13
2018-05-10T10:09:07.305Z,3.83
2018-05-10T10:11:42.500Z,4.37
2018-05-10T10:14:16.208Z,4.40
2018-05-10T10:16:51.207Z,4.70
2018-05-10T10:19:25.039Z,4.17
2018-05-10T10:22:00.735Z,4.17
2018-05-10T10:24:36.122Z,4.03
2018-05-10T10:27:09.819Z,4.47
2018-05-10T10:29:43.322Z,3.93
2018-05-10T10:32:17.269Z,4.30
2018-05-10T10:34:52.114Z,4.20
2018-05-10T10:37:26.517Z,3.97
2018-05-10T10:40:00.911Z,4.53
2018-05-10T10:42:35.878Z,4.50
2018-05-10T10:45:10.934Z,4.10
2018-05-10T10:47:45.954Z,3.97
2018-05-10T10:50:22.209Z,4.13
2018-05-10T10:52:57.412Z,4.03
2018-05-10T10:55:33.111Z,4.13
2018-05-10T10:58:10.650Z,4.20
2018-05-10T11:00:49.222Z,4.10
2018-05-10T11:03:24.980Z,4.10
2018-05-10T11:06:00.539Z,3.43
2018-05-10T11:08:36.783Z,3.40
2018-05-10T11:11:11.899Z,3.67
2018-05-10T11:13:46.044Z,4.50
2018-05-10T11:16:20.515Z,4.20
2018-05-10T11:18:55.101Z,3.93
2018-05-10T11:21:31.236Z,3.83
2018-05-10T11:24:04.810Z,3.40
2018-05-10T11:26:38.407Z,3.60
2018-05-10T11:29:12.056Z,3.30
2018-05-10T11:31:46.661Z,3.33
2018-05-10T11:34:21.185Z,3.57
2018-05-10T11:36:54.903Z,3.50
2018-05-10T11:39:28.496Z,3.80
2018-05-10T11:42:02.849Z,3.70
2018-05-10T11:44:37.581Z,3.30
2018-05-10T11:47:11.756Z,3.80
2018-05-10T11:49:46.334Z,4.67
2018-05-10T11:52:20.087Z,4.13
2018-05-10T11:54:54.551Z,3.47
2018-05-10T11:57:28.269Z,3.67
2018-05-10T12:00:03.363Z,3.73
2018-05-10T12:02:37.869Z,3.43
2018-05-10T12:05:12.553Z,3.63
2018-05-10T12:07:47.310Z,3.90
2018-05-10T12:10:21.671Z,3.90
2018-05-10T12:12:55.278Z,3.30
2018-05-10T12:15:28.920Z,3.63
2018-05-10T12:18:02.655Z,3.90
2018-05-10T12:20:36.310Z,3.57
2018-05-10T12:26:07.631Z,3.63
2018-05-10T12:28:44.645Z,3.73
2018-05-10T12:31:24.844Z,3.93
2018-05-10T12:33:58.737Z,3.00
2018-05-10T12:36:32.315Z,3.30
2018-05-10T12:39:06.866Z,3.20
2018-05-10T12:41:40.777Z,3.30
2018-05-10T12:44:14.543Z,2.93
2018-05-10T12:46:48.648Z,2.83
2018-05-10T12:49:23.374Z,2.93
2018-05-10T12:51:57.050Z,2.90
2018-05-10T12:54:31.424Z,3.20
2018-05-10T12:57:04.926Z,2.87
2018-05-10T12:59:38.850Z,3.00
2018-05-10T13:02:13.417Z,3.03
2018-05-10T13:04:47.034Z,2.97
2018-05-10T13:07:20.665Z,2.80
2018-05-10T13:09:54.343Z,2.50
2018-05-10T13:12:28.775Z,3.10
2018-05-10T13:15:02.763Z,2.40
2018-05-10T13:17:36.651Z,2.80
2018-05-10T13:20:10.678Z,2.63
2018-05-10T13:22:44.935Z,3.30
2018-05-10T13:25:18.569Z,2.70
2018-05-10T13:27:53.831Z,2.87
2018-05-10T13:30:27.688Z,2.60
2018-05-10T13:33:02.231Z,2.73
2018-05-10T13:35:36.740Z,2.60
2018-05-10T13:38:10.567Z,3.00
2018-05-10T13:40:45.217Z,3.00
2018-05-10T13:43:19.904Z,3.00
2018-05-10T13:45:53.573Z,3.00
2018-05-10T13:48:28.042Z,3.10
2018-05-10T13:51:02.409Z,3.43
2018-05-10T13:53:36.079Z,2.97
2018-05-10T13:56:09.766Z,3.10
2018-05-10T13:58:44.250Z,3.40
2018-05-10T14:01:17.991Z,3.50
2018-05-10T14:03:52.404Z,3.90
2018-05-10T14:06:26.016Z,3.20
2018-05-10T14:08:59.652Z,3.93
2018-05-10T14:11:33.146Z,4.00
2018-05-10T14:14:06.706Z,4.17
2018-05-10T14:16:40.451Z,3.87
2018-05-10T14:19:14.892Z,3.23
2018-05-10T14:21:48.650Z,3.00
2018-05-10T14:24:22.351Z,2.63
2018-05-10T14:26:56.027Z,2.77
2018-05-10T14:29:29.758Z,2.83
2018-05-10T14:32:04.201Z,2.20
2018-05-10T14:34:38.131Z,2.20
2018-05-10T14:37:12.807Z,2.37
2018-05-10T14:39:46.680Z,2.90
2018-05-10T14:42:21.226Z,3.57
2018-05-10T14:44:55.026Z,2.80
2018-05-10T14:47:28.892Z,3.23
2018-05-10T14:50:03.641Z,3.70
2018-05-10T14:52:38.310Z,4.30
2018-05-10T14:55:12.036Z,4.70
2018-05-10T14:57:46.415Z,4.43
2018-05-10T15:00:20.947Z,4.73
2018-05-10T15:02:55.603Z,5.37
2018-05-10T15:05:30.091Z,7.47
2018-05-10T15:08:03.865Z,7.93
2018-05-10T15:10:37.785Z,7.27
2018-05-10T15:13:12.405Z,7.40
2018-05-10T15:15:47.001Z,7.90
2018-05-10T15:18:21.729Z,7.30
2018-05-10T15:20:55.358Z,9.03
2018-05-10T15:23:28.972Z,8.43
2018-05-10T15:26:02.846Z,8.50
2018-05-10T15:28:36.455Z,8.20
2018-05-10T15:31:10.231Z,7.10
2018-05-10T15:33:45.540Z,7.27
2018-05-10T15:36:19.319Z,7.03
2018-05-10T15:38:53.131Z,7.63
2018-05-10T15:41:28.550Z,7.23
2018-05-10T15:44:03.144Z,7.67
2018-05-10T15:46:36.758Z,7.23
2018-05-10T15:49:14.558Z,7.83
2018-05-10T15:51:48.641Z,7.77
2018-05-10T15:54:22.548Z,8.57
2018-05-10T15:56:56.374Z,8.33
2018-05-10T15:59:30.900Z,7.73
2018-05-10T16:02:06.159Z,8.30
2018-05-10T16:04:39.771Z,8.50
2018-05-10T16:07:14.344Z,7.87
2018-05-10T16:09:47.890Z,7.33
2018-05-10T16:12:22.419Z,10.10
2018-05-10T16:14:57.235Z,8.87
2018-05-10T16:17:34.413Z,9.10
2018-05-10T16:20:09.429Z,12.30
2018-05-10T16:22:44.194Z,7.70
2018-05-10T16:25:19.879Z,7.43
2018-05-10T16:27:53.668Z,8.67
2018-05-10T16:30:27.710Z,7.63
2018-05-10T16:33:01.336Z,8.13
2018-05-10T16:35:36.223Z,8.43
2018-05-10T16:38:11.610Z,8.57
2018-05-10T16:40:45.272Z,9.27
2018-05-10T16:43:19.710Z,12.20
2018-05-10T16:45:53.860Z,10.30
2018-05-10T16:48:27.653Z,8.60
2018-05-10T16:51:01.856Z,8.57
2018-05-10T16:53:35.503Z,7.50
2018-05-10T16:56:09.264Z,6.43
2018-05-10T16:58:42.979Z,5.70
2018-05-10T17:01:17.410Z,5.23
2018-05-10T17:03:56.717Z,5.60
2018-05-10T17:06:31.671Z,4.97
2018-05-10T17:09:06.090Z,5.53
2018-05-10T17:11:42.925Z,5.10
2018-05-10T17:14:17.872Z,4.53
2018-05-10T17:16:53.113Z,6.53
2018-05-10T17:19:27.956Z,6.43
2018-05-10T17:22:01.826Z,5.60
2018-05-10T17:24:36.463Z,5.50
2018-05-10T17:27:10.196Z,5.40
2018-05-10T17:29:44.487Z,5.63
2018-05-10T17:32:18.677Z,6.13
2018-05-10T17:34:53.238Z,6.13
2018-05-10T17:37:26.831Z,6.33
2018-05-10T17:40:02.172Z,6.47
2018-05-10T17:42:35.904Z,6.90
2018-05-10T17:45:09.849Z,6.27
2018-05-10T17:47:43.973Z,5.90
2018-05-10T17:50:18.076Z,5.53
2018-05-10T17:52:53.053Z,6.23
2018-05-10T17:55:27.975Z,5.90
2018-05-10T17:58:02.566Z,5.80
2018-05-10T18:00:36.255Z,7.73
2018-05-10T18:03:10.823Z,8.40
2018-05-10T18:05:44.727Z,7.10
2018-05-10T18:08:20.175Z,6.00
2018-05-10T18:10:54.904Z,6.07
2018-05-10T18:13:28.798Z,6.17
2018-05-10T18:16:02.875Z,6.93
2018-05-10T18:18:37.546Z,5.63
2018-05-10T18:21:12.323Z,6.00
2018-05-10T18:23:46.165Z,4.90
2018-05-10T18:26:20.522Z,5.10
2018-05-10T18:28:55.018Z,5.40
2018-05-10T18:31:30.316Z,4.60
2018-05-10T18:34:06.410Z,4.93
2018-05-10T18:36:43.072Z,4.40
2018-05-10T18:39:18.406Z,4.40
2018-05-10T18:41:53.981Z,5.50
2018-05-10T18:44:28.259Z,5.70
2018-05-10T18:47:03.604Z,5.37
2018-05-10T18:49:37.540Z,5.53
2018-05-10T18:52:12.635Z,5.17
2018-05-10T18:54:47.893Z,5.70
2018-05-10T18:57:22.844Z,4.77
2018-05-10T18:59:57.448Z,5.03
2018-05-10T19:02:32.681Z,4.60
2018-05-10T19:05:07.581Z,4.63
2018-05-10T19:07:41.803Z,4.43
2018-05-10T19:10:17.067Z,4.83
2018-05-10T19:12:51.530Z,5.60
2018-05-10T19:15:26.929Z,4.70
2018-05-10T19:18:02.247Z,4.80
2018-05-10T19:20:36.384Z,4.80
2018-05-10T19:23:11.125Z,5.10
2018-05-10T19:25:46.247Z,5.40
2018-05-10T19:28:20.766Z,4.77
2018-05-10T19:30:55.917Z,4.43
2018-05-10T19:33:30.580Z,4.63
2018-05-10T19:36:04.980Z,4.53
2018-05-10T19:38:40.261Z,4.90
2018-05-10T19:41:14.829Z,5.00
2018-05-10T19:43:50.996Z,4.27
2018-05-10T19:46:26.924Z,5.20
2018-05-10T19:49:01.073Z,4.00
2018-05-10T19:51:35.277Z,4.50
2018-05-10T19:54:09.063Z,4.50
2018-05-10T19:56:45.239Z,4.27
2018-05-10T19:59:20.622Z,4.83
2018-05-10T20:01:56.317Z,4.83
2018-05-10T20:04:32.493Z,4.83
2018-05-10T20:07:06.595Z,4.37
2018-05-10T20:09:42.657Z,4.90
2018-05-10T20:12:16.971Z,4.63
2018-05-10T20:14:52.578Z,4.60
2018-05-10T20:17:27.220Z,4.73
2018-05-10T20:20:01.673Z,4.70
2018-05-10T20:22:36.359Z,5.07
2018-05-10T20:25:11.830Z,4.17
2018-05-10T20:27:46.909Z,4.80
2018-05-10T20:30:20.957Z,4.97
2018-05-10T20:32:55.176Z,4.97
2018-05-10T20:35:29.692Z,4.90
2018-05-10T20:38:03.836Z,5.13
2018-05-10T20:40:38.339Z,4.23
2018-05-10T20:43:12.735Z,4.70
2018-05-10T20:45:47.578Z,4.13
2018-05-10T20:48:21.500Z,4.90
2018-05-10T20:50:55.286Z,4.47
2018-05-10T20:53:28.993Z,4.90
2018-05-10T20:56:03.088Z,4.40
2018-05-10T20:58:37.209Z,4.90
2018-05-10T21:01:13.992Z,4.40
2018-05-10T21:03:48.503Z,4.60
2018-05-10T21:06:25.813Z,4.90
2018-05-10T21:09:00.767Z,4.40
2018-05-10T21:11:35.762Z,5.30
2018-05-10T21:14:10.077Z,4.17
2018-05-10T21:16:45.614Z,4.33
2018-05-10T21:19:19.333Z,4.50
2018-05-10T21:21:54.675Z,4.73
2018-05-10T21:24:28.751Z,4.67
2018-05-10T21:27:03.630Z,5.10
2018-05-10T21:29:38.134Z,5.33
2018-05-10T21:32:12.647Z,5.27
2018-05-10T21:34:46.758Z,5.60
2018-05-10T21:37:22.184Z,5.60
2018-05-10T21:39:56.109Z,4.93
2018-05-10T21:42:32.061Z,4.97
2018-05-10T21:45:05.967Z,5.03
2018-05-10T21:47:40.881Z,4.80
2018-05-10T21:50:15.833Z,4.37
2018-05-10T21:52:50.145Z,4.50
2018-05-10T21:55:25.067Z,5.17
2018-05-10T21:57:59.700Z,5.17
2018-05-10T22:00:34.535Z,4.90
2018-05-10T22:03:09.771Z,4.60
2018-05-10T22:05:44.470Z,5.00
2018-05-10T22:08:18.203Z,4.90
2018-05-10T22:10:53.958Z,4.33
2018-05-10T22:13:30.541Z,5.20
2018-05-10T22:16:05.822Z,5.07
2018-05-10T22:18:41.000Z,4.80
2018-05-10T22:21:15.808Z,5.03
2018-05-10T22:23:50.236Z,5.23
2018-05-10T22:26:24.631Z,5.40
2018-05-10T22:29:00.355Z,5.23
2018-05-10T22:31:34.171Z,5.50
2018-05-10T22:34:08.116Z,5.37
2018-05-10T22:36:42.548Z,5.23
2018-05-10T22:39:16.961Z,5.40
2018-05-10T22:41:51.073Z,5.87
2018-05-10T22:44:25.210Z,5.47
2018-05-10T22:47:00.327Z,4.90
2018-05-10T22:49:35.543Z,5.07
2018-05-10T22:52:09.774Z,5.37
2018-05-10T22:54:43.779Z,4.97
2018-05-10T22:57:17.751Z,4.97
2018-05-10T22:59:52.642Z,5.03
2018-05-10T23:02:26.746Z,5.20
2018-05-10T23:05:02.672Z,5.43
2018-05-10T23:07:36.490Z,5.10
2018-05-10T23:10:11.832Z,5.37
2018-05-10T23:12:45.951Z,5.23
2018-05-10T23:15:21.599Z,5.70
2018-05-10T23:17:55.701Z,5.43
2018-05-10T23:20:29.826Z,5.70
2018-05-10T23:23:03.947Z,5.57
2018-05-10T23:25:38.846Z,5.27
2018-05-10T23:28:13.556Z,5.80
2018-05-10T23:30:47.786Z,6.10
2018-05-10T23:33:21.762Z,5.60
2018-05-10T23:35:55.935Z,6.07
2018-05-10T23:38:29.842Z,6.23
2018-05-10T23:41:04.948Z,5.73
2018-05-10T23:43:39.703Z,5.80
2018-05-10T23:46:14.691Z,5.83
2018-05-10T23:48:48.625Z,6.10
2018-05-10T23:51:24.169Z,6.23
2018-05-10T23:53:59.294Z,6.07
2018-05-10T23:56:33.378Z,6.73
2018-05-10T23:59:07.469Z,5.90
